Time;durP1;ratioP1;P1;durP2;ratioP2;P2;SDS_P1;SDS_P2;PMS_P1;PMS_P2;Temp;Humidity;BMP_temperature;BMP_pressure;BME280_temperature;BME280_humidity;BME280_pressure;Samples;Min_cycle;Max_cycle;Signal;HPM_P1;HPM_P2
2021/12/19 00:00:58;;;;;;;45.13;25.33;;;1.00;99.90;;;;;;5092309;28;20043;-60
2021/12/19 00:03:47;;;;;;;44.97;25.38;;;0.90;99.90;;;;;;5073302;28;20078;-60
2021/12/19 00:08:57;;;;;;;40.63;22.20;;;1.00;99.90;;;;;;5092524;28;20039;-60
2021/12/19 00:11:26;;;;;;;42.65;23.23;;;1.10;99.90;;;;;;5092522;28;21995;-60
2021/12/19 00:13:53;;;;;;;36.95;20.98;;;1.00;99.90;;;;;;5092423;28;20387;-60
2021/12/19 00:16:19;;;;;;;40.92;23.70;;;1.00;99.90;;;;;;5092026;28;20040;-60
2021/12/19 00:18:46;;;;;;;41.30;23.77;;;1.00;99.90;;;;;;5092238;28;20036;-60
2021/12/19 00:21:17;;;;;;;50.90;24.98;;;0.90;99.90;;;;;;5091484;28;20040;-60
2021/12/19 00:23:45;;;;;;;37.88;21.45;;;0.90;99.90;;;;;;5092090;28;20034;-60
2021/12/19 00:26:11;;;;;;;39.90;23.52;;;1.00;99.90;;;;;;5092224;28;20016;-60
2021/12/19 00:28:38;;;;;;;47.63;25.85;;;1.10;99.90;;;;;;5092054;28;20147;-60
2021/12/19 00:31:04;;;;;;;42.72;24.13;;;1.00;99.90;;;;;;5091854;28;20028;-60
2021/12/19 00:33:29;;;;;;;56.90;28.77;;;0.90;99.90;;;;;;5092112;28;20032;-60
2021/12/19 00:35:55;;;;;;;58.95;29.67;;;0.90;99.90;;;;;;5092177;28;20028;-60
2021/12/19 00:38:21;;;;;;;43.42;22.38;;;0.80;99.90;;;;;;5091751;28;20744;-60
2021/12/19 00:40:47;;;;;;;46.08;25.23;;;0.90;99.90;;;;;;5091537;28;20024;-60
2021/12/19 00:43:22;;;;;;;52.47;27.88;;;0.90;99.90;;;;;;5091924;28;20115;-60
2021/12/19 00:45:49;;;;;;;45.25;24.45;;;0.80;99.90;;;;;;5092186;28;20016;-60
2021/12/19 00:48:16;;;;;;;47.63;24.60;;;0.80;99.90;;;;;;5091551;28;20413;-60
2021/12/19 00:50:41;;;;;;;44.97;24.55;;;0.90;99.90;;;;;;5092082;28;20056;-60
2021/12/19 00:53:08;;;;;;;52.05;25.85;;;0.80;99.90;;;;;;5091429;28;20486;-60
2021/12/19 00:55:35;;;;;;;51.72;27.15;;;0.70;99.90;;;;;;5092102;28;20024;-60
2021/12/19 00:58:01;;;;;;;56.08;27.58;;;0.80;99.90;;;;;;5091749;28;20034;-60
2021/12/19 01:00:29;;;;;;;45.53;25.08;;;0.80;99.90;;;;;;5086322;28;20032;-60
2021/12/19 01:02:58;;;;;;;52.47;26.52;;;0.70;99.90;;;;;;5091355;28;20032;-60
2021/12/19 01:05:29;;;;;;;48.60;23.75;;;0.70;99.90;;;;;;5091611;28;20062;-60
2021/12/19 01:07:55;;;;;;;45.90;24.08;;;0.80;99.90;;;;;;5064009;28;20083;-60
2021/12/19 01:10:21;;;;;;;55.35;26.45;;;0.80;99.90;;;;;;5083834;28;20821;-60
2021/12/19 01:12:46;;;;;;;41.10;21.95;;;0.90;99.90;;;;;;5091596;28;20028;-60
2021/12/19 01:15:14;;;;;;;40.15;22.77;;;0.80;99.90;;;;;;5091497;28;20036;-60
2021/12/19 01:17:40;;;;;;;42.47;23.45;;;0.80;99.90;;;;;;5060414;28;20086;-60
2021/12/19 01:20:17;;;;;;;65.18;29.98;;;0.70;99.90;;;;;;5087585;28;20610;-60
2021/12/19 01:22:43;;;;;;;42.33;23.42;;;0.70;99.90;;;;;;5091191;28;20028;-60
2021/12/19 01:25:09;;;;;;;46.10;23.20;;;0.80;99.90;;;;;;5091478;28;20031;-60
2021/12/19 01:27:35;;;;;;;55.28;24.88;;;0.80;99.90;;;;;;5073250;28;20016;-60
2021/12/19 01:30:02;;;;;;;46.33;24.30;;;0.70;99.90;;;;;;5091168;28;20040;-60
2021/12/19 01:32:28;;;;;;;41.53;23.75;;;0.70;99.90;;;;;;5092992;28;20027;-60
2021/12/19 01:34:54;;;;;;;57.28;28.85;;;0.60;99.90;;;;;;5095206;28;20032;-60
2021/12/19 01:37:19;;;;;;;50.75;26.25;;;0.70;99.90;;;;;;5095281;28;20032;-60
2021/12/19 01:39:45;;;;;;;50.10;28.27;;;0.60;99.90;;;;;;5095436;28;20038;-60
2021/12/19 01:42:12;;;;;;;52.42;27.15;;;0.50;99.90;;;;;;5095029;28;20016;-60
2021/12/19 01:44:38;;;;;;;65.40;29.23;;;0.50;99.90;;;;;;5095096;28;20028;-60
2021/12/19 01:47:04;;;;;;;52.97;26.65;;;0.50;99.90;;;;;;5095195;28;20367;-60
2021/12/19 01:49:31;;;;;;;50.65;26.63;;;0.50;99.90;;;;;;5095319;28;20031;-60
2021/12/19 01:51:57;;;;;;;60.65;29.45;;;0.40;99.90;;;;;;5095175;28;20061;-60
2021/12/19 01:54:23;;;;;;;55.63;28.33;;;0.40;99.90;;;;;;5095301;28;20016;-60
2021/12/19 01:56:49;;;;;;;74.60;33.08;;;0.40;99.90;;;;;;5095243;28;20031;-60
2021/12/19 01:59:15;;;;;;;67.70;30.70;;;0.40;99.90;;;;;;5094268;28;20367;-60
2021/12/19 02:01:49;;;;;;;60.05;28.77;;;0.40;99.90;;;;;;5094810;28;20028;-60
2021/12/19 02:04:16;;;;;;;76.50;31.95;;;0.50;99.90;;;;;;5094762;28;20115;-60
2021/12/19 02:06:42;;;;;;;53.88;27.70;;;0.50;99.90;;;;;;5094505;28;20103;-60
2021/12/19 02:09:09;;;;;;;62.47;30.73;;;0.50;99.90;;;;;;5094685;28;20150;-60
2021/12/19 02:11:36;;;;;;;55.10;27.60;;;0.40;99.90;;;;;;5094944;28;20061;-60
2021/12/19 02:14:03;;;;;;;66.85;30.63;;;0.50;99.90;;;;;;5094796;28;20143;-60
2021/12/19 02:16:29;;;;;;;54.25;27.25;;;0.50;99.90;;;;;;5094569;28;20147;-60
2021/12/19 02:18:56;;;;;;;66.40;29.77;;;0.50;99.90;;;;;;5094436;28;20135;-60
2021/12/19 02:21:21;;;;;;;59.10;30.02;;;0.50;99.90;;;;;;5094214;28;20043;-60
2021/12/19 02:23:48;;;;;;;71.65;33.53;;;0.50;99.90;;;;;;5094621;28;20406;-60
2021/12/19 02:26:15;;;;;;;84.00;33.28;;;0.50;99.90;;;;;;5094441;28;20378;-60
2021/12/19 02:28:40;;;;;;;62.63;30.60;;;0.50;99.90;;;;;;5094158;28;20020;-60
2021/12/19 02:31:06;;;;;;;61.13;29.30;;;0.50;99.90;;;;;;5094209;28;20020;-60
2021/12/19 02:33:37;;;;;;;58.25;29.02;;;0.40;99.90;;;;;;5094262;28;20463;-60
2021/12/19 02:49:16;;;;;;;61.70;29.67;;;0.30;99.90;;;;;;5084393;28;20035;-60
2021/12/19 02:51:41;;;;;;;50.63;26.58;;;0.40;99.90;;;;;;5094374;28;20016;-60
2021/12/19 02:54:07;;;;;;;50.92;27.42;;;0.40;99.90;;;;;;5093816;28;20043;-60
2021/12/19 02:56:33;;;;;;;60.60;31.70;;;0.40;99.90;;;;;;5094095;28;20016;-60
2021/12/19 02:58:59;;;;;;;68.03;31.45;;;0.40;99.90;;;;;;5093816;28;20465;-60
2021/12/19 03:01:25;;;;;;;55.88;29.33;;;0.40;99.90;;;;;;5093546;28;20452;-60
2021/12/19 03:03:50;;;;;;;54.30;29.63;;;0.40;99.90;;;;;;5093741;28;20434;-60
2021/12/19 03:06:16;;;;;;;51.67;26.67;;;0.40;99.90;;;;;;5093718;28;20024;-60
2021/12/19 03:08:45;;;;;;;51.30;29.55;;;0.50;99.90;;;;;;5093252;28;20028;-60
2021/12/19 03:11:58;;;;;;;49.97;28.88;;;0.40;99.90;;;;;;5093636;28;20020;-60
2021/12/19 03:19:40;;;;;;;46.97;27.17;;;0.50;99.90;;;;;;5093239;28;20139;-60
2021/12/19 03:22:06;;;;;;;48.65;25.50;;;0.50;99.90;;;;;;5093382;28;20668;-60
2021/12/19 03:24:32;;;;;;;46.75;26.52;;;0.60;99.90;;;;;;5093356;28;20052;-60
2021/12/19 03:26:57;;;;;;;40.03;23.45;;;0.50;99.90;;;;;;5093567;28;20471;-60
2021/12/19 03:29:23;;;;;;;39.38;23.00;;;0.50;99.90;;;;;;5092952;28;20819;-60
2021/12/19 03:31:49;;;;;;;43.88;24.35;;;0.50;99.90;;;;;;5093303;28;20016;-60
2021/12/19 03:34:14;;;;;;;41.03;23.08;;;0.40;99.90;;;;;;5092664;28;20016;-60
2021/12/19 03:36:40;;;;;;;42.80;24.80;;;0.40;99.90;;;;;;5093086;28;20370;-60
2021/12/19 03:39:14;;;;;;;43.58;23.88;;;0.40;99.90;;;;;;5092574;28;20069;-60
2021/12/19 03:41:41;;;;;;;44.15;24.33;;;0.40;99.90;;;;;;5074608;28;20036;-60
2021/12/19 03:44:07;;;;;;;42.97;23.60;;;0.40;99.90;;;;;;5092663;28;20372;-60
2021/12/19 03:46:33;;;;;;;47.28;25.55;;;0.40;99.90;;;;;;5093104;28;20023;-60
2021/12/19 03:48:59;;;;;;;50.35;26.25;;;0.30;99.90;;;;;;5092886;28;20032;-60
2021/12/19 03:51:25;;;;;;;43.08;23.95;;;0.20;99.90;;;;;;5092995;28;20413;-60
2021/12/19 03:53:50;;;;;;;50.25;25.52;;;0.20;99.90;;;;;;5092448;28;20036;-60
2021/12/19 03:56:16;;;;;;;45.53;24.85;;;0.30;99.90;;;;;;5092405;28;20046;-60
2021/12/19 03:58:42;;;;;;;45.40;25.13;;;0.20;99.90;;;;;;5092876;28;20028;-60
2021/12/19 04:01:09;;;;;;;47.55;26.80;;;0.20;99.90;;;;;;5092306;28;20024;-60
2021/12/19 04:03:35;;;;;;;52.78;27.20;;;0.20;99.90;;;;;;5092762;28;20376;-61
2021/12/19 04:06:01;;;;;;;46.65;25.25;;;0.20;99.90;;;;;;5092636;28;20039;-60
2021/12/19 04:08:27;;;;;;;49.35;27.25;;;0.20;99.90;;;;;;5092080;28;20077;-60
2021/12/19 04:10:53;;;;;;;48.10;26.17;;;0.30;99.90;;;;;;5092440;28;20378;-60
2021/12/19 04:13:19;;;;;;;47.30;26.63;;;0.30;99.90;;;;;;5074154;28;20859;-60
2021/12/19 04:15:47;;;;;;;46.47;27.00;;;0.20;99.90;;;;;;5092434;28;20027;-60
2021/12/19 04:18:14;;;;;;;50.55;29.48;;;0.30;99.90;;;;;;5092142;28;20020;-60
2021/12/19 04:20:40;;;;;;;51.70;30.70;;;0.30;99.90;;;;;;5092367;28;20020;-60
2021/12/19 04:23:05;;;;;;;47.75;27.58;;;0.30;99.90;;;;;;5091967;28;20060;-60
2021/12/19 04:25:31;;;;;;;50.35;26.88;;;0.30;99.90;;;;;;5092383;28;20485;-60
2021/12/19 04:27:57;;;;;;;49.45;30.13;;;0.30;99.90;;;;;;5092385;28;20051;-60
2021/12/19 04:30:25;;;;;;;52.15;30.13;;;0.30;99.90;;;;;;5091907;28;20024;-60
2021/12/19 04:33:08;;;;;;;55.45;30.73;;;0.20;99.90;;;;;;5092393;28;20115;-60
2021/12/19 04:35:38;;;;;;;49.70;28.77;;;0.20;99.90;;;;;;5073673;28;20051;-60
2021/12/19 05:02:17;;;;;;;64.28;35.47;;;0.20;99.90;;;;;;5092090;28;20026;-60
2021/12/19 05:15:30;;;;;;;55.28;29.40;;;0.20;99.90;;;;;;5091721;28;20043;-60
2021/12/19 05:18:01;;;;;;;53.90;31.23;;;0.30;99.90;;;;;;5072900;28;20036;-60
2021/12/19 05:20:29;;;;;;;54.75;31.52;;;0.30;99.90;;;;;;5091385;28;20028;-60
2021/12/19 05:23:03;;;;;;;55.63;30.80;;;0.30;99.90;;;;;;5091818;28;20107;-60
2021/12/19 05:25:28;;;;;;;55.65;31.92;;;0.30;99.90;;;;;;5081678;28;20051;-60
2021/12/19 05:27:56;;;;;;;59.83;31.83;;;0.20;99.90;;;;;;5091770;28;20052;-60
2021/12/19 05:30:23;;;;;;;53.50;29.73;;;0.20;99.90;;;;;;5091505;28;20112;-60
2021/12/19 05:32:50;;;;;;;55.17;30.50;;;0.30;99.90;;;;;;5073137;28;20040;-60
2021/12/19 05:35:24;;;;;;;55.95;30.20;;;0.20;99.90;;;;;;5091460;28;20493;-60
2021/12/19 05:46:03;;;;;;;52.42;30.00;;;0.20;99.90;;;;;;5071252;28;20445;-60
2021/12/19 05:48:29;;;;;;;51.90;29.83;;;0.20;99.90;;;;;;5075809;28;20040;-60
2021/12/19 05:50:54;;;;;;;55.58;30.40;;;0.20;99.90;;;;;;5091295;28;20019;-60
2021/12/19 05:53:20;;;;;;;53.58;29.27;;;0.20;99.90;;;;;;5072466;28;20062;-60
2021/12/19 05:55:46;;;;;;;54.25;28.83;;;0.20;99.90;;;;;;5091084;28;20078;-60
2021/12/19 05:58:11;;;;;;;58.78;28.80;;;0.10;99.90;;;;;;5090601;28;20017;-60
2021/12/19 06:00:38;;;;;;;52.70;29.67;;;0.00;99.90;;;;;;5091137;28;20036;-60
2021/12/19 06:03:04;;;;;;;54.00;31.15;;;0.10;99.90;;;;;;5091076;28;20099;-60
2021/12/19 06:05:30;;;;;;;53.72;29.63;;;0.10;99.90;;;;;;5090794;28;20407;-60
2021/12/19 06:07:56;;;;;;;56.88;31.40;;;0.10;99.90;;;;;;5072879;28;20029;-60
2021/12/19 06:10:22;;;;;;;54.22;29.75;;;0.10;99.90;;;;;;5090854;28;20043;-60
2021/12/19 06:12:49;;;;;;;58.40;31.27;;;0.20;99.90;;;;;;5091028;28;20026;-60
2021/12/19 06:15:14;;;;;;;49.78;29.30;;;0.20;99.90;;;;;;5072503;28;20066;-60
2021/12/19 06:17:42;;;;;;;64.97;34.00;;;0.20;99.90;;;;;;5073833;28;20135;-60
2021/12/19 06:20:09;;;;;;;50.17;28.13;;;0.20;99.90;;;;;;5094559;28;20060;-60
2021/12/19 06:22:35;;;;;;;48.72;28.70;;;0.30;99.90;;;;;;5094540;28;20566;-60
2021/12/19 06:25:03;;;;;;;49.67;28.98;;;0.30;99.90;;;;;;5094557;28;20027;-60
2021/12/19 06:27:28;;;;;;;63.92;32.13;;;0.30;99.90;;;;;;5094275;28;20024;-60
2021/12/19 06:29:54;;;;;;;61.22;30.88;;;0.20;99.90;;;;;;5094368;28;20387;-60
2021/12/19 06:32:19;;;;;;;68.38;35.25;;;0.20;99.90;;;;;;5094474;28;20031;-60
2021/12/19 06:34:45;;;;;;;47.35;25.88;;;0.20;99.90;;;;;;5094204;28;20031;-60
2021/12/19 06:37:11;;;;;;;53.00;28.30;;;0.20;99.90;;;;;;5094132;28;20012;-60
2021/12/19 06:39:38;;;;;;;51.15;28.85;;;0.20;99.90;;;;;;5094092;28;20113;-60
2021/12/19 06:42:06;;;;;;;56.92;30.40;;;0.20;99.90;;;;;;5094241;28;20023;-60
2021/12/19 06:44:33;;;;;;;55.28;27.45;;;0.20;99.90;;;;;;5094067;28;20039;-60
2021/12/19 06:46:59;;;;;;;50.58;28.42;;;0.20;99.90;;;;;;5094087;28;20034;-60
2021/12/19 06:49:24;;;;;;;51.15;28.10;;;0.20;99.90;;;;;;5093880;28;20062;-60
2021/12/19 06:51:50;;;;;;;59.00;32.65;;;0.10;99.90;;;;;;5094221;28;20052;-60
2021/12/19 06:54:16;;;;;;;54.50;30.40;;;0.10;99.90;;;;;;5093972;28;20039;-60
2021/12/19 06:56:41;;;;;;;47.05;27.08;;;0.10;99.90;;;;;;5075802;28;20032;-60
2021/12/19 06:59:07;;;;;;;48.88;26.80;;;0.20;99.90;;;;;;5093536;28;20028;-60
2021/12/19 07:01:33;;;;;;;54.25;29.42;;;0.20;99.90;;;;;;5093796;28;20034;-60
2021/12/19 07:03:58;;;;;;;57.55;29.20;;;0.30;99.90;;;;;;5093695;28;20032;-60
2021/12/19 07:06:24;;;;;;;54.53;27.80;;;0.20;99.90;;;;;;5093826;28;20027;-60
2021/12/19 07:08:50;;;;;;;59.33;29.92;;;0.20;99.90;;;;;;5093773;28;20016;-60
2021/12/19 07:11:15;;;;;;;54.75;30.48;;;0.20;99.90;;;;;;5075271;28;20380;-60
2021/12/19 07:13:41;;;;;;;56.50;30.77;;;0.00;99.90;;;;;;5093768;28;20028;-60
2021/12/19 07:16:07;;;;;;;54.05;31.20;;;0.00;99.90;;;;;;5093160;28;20708;-60
2021/12/19 07:18:36;;;;;;;51.30;28.45;;;0.00;99.90;;;;;;5093298;28;20085;-60
2021/12/19 07:21:03;;;;;;;50.30;28.65;;;0.10;99.90;;;;;;5093432;28;20020;-60
2021/12/19 07:23:28;;;;;;;50.58;28.65;;;0.20;99.90;;;;;;5093131;28;20150;-60
2021/12/19 07:25:54;;;;;;;51.63;26.92;;;0.20;99.90;;;;;;5093593;28;20460;-60
2021/12/19 07:28:20;;;;;;;52.97;27.70;;;0.20;99.90;;;;;;5093249;28;20413;-60
2021/12/19 07:30:45;;;;;;;49.00;27.23;;;0.30;99.90;;;;;;5091709;28;20459;-60
2021/12/19 07:33:12;;;;;;;50.67;29.13;;;0.30;99.90;;;;;;5093001;28;20478;-58
2021/12/19 07:35:41;;;;;;;48.10;27.55;;;0.20;99.90;;;;;;5093191;28;20019;-60
2021/12/19 07:38:09;;;;;;;48.90;28.52;;;0.30;99.90;;;;;;5092857;28;20406;-60
2021/12/19 07:40:36;;;;;;;100.22;47.28;;;0.30;99.90;;;;;;5092539;28;20031;-61
2021/12/19 07:43:04;;;;;;;59.10;31.33;;;0.30;99.90;;;;;;5092976;28;20370;-60
2021/12/19 07:45:31;;;;;;;48.78;26.85;;;0.20;99.90;;;;;;5092687;28;20016;-60
2021/12/19 07:47:56;;;;;;;67.97;33.60;;;0.30;99.90;;;;;;5092412;28;20031;-60
2021/12/19 07:50:22;;;;;;;64.80;32.47;;;0.40;99.90;;;;;;5092726;28;20383;-60
2021/12/19 07:52:48;;;;;;;45.92;27.60;;;0.30;99.90;;;;;;5092368;28;20099;-60
2021/12/19 07:55:14;;;;;;;44.97;25.25;;;0.50;99.90;;;;;;5092337;28;20114;-60
2021/12/19 07:57:40;;;;;;;45.22;25.27;;;0.60;99.90;;;;;;5092723;28;20024;-60
2021/12/19 08:00:09;;;;;;;48.15;26.65;;;0.70;99.90;;;;;;5092347;28;20028;-60
2021/12/19 08:02:34;;;;;;;39.95;22.83;;;0.50;99.90;;;;;;5074218;28;20020;-60
2021/12/19 08:05:00;;;;;;;61.65;32.20;;;0.60;99.90;;;;;;5092368;28;20583;-60
2021/12/19 08:07:26;;;;;;;48.63;26.83;;;0.60;99.90;;;;;;5092168;28;20364;-61
2021/12/19 08:12:35;;;;;;;;;;;0.60;99.90;;;;;;5092328;28;20569;-60
2021/12/19 08:15:02;;;;;;;47.20;25.35;;;0.70;99.90;;;;;;5091660;28;19915;-60
2021/12/19 08:17:27;;;;;;;42.88;25.55;;;0.80;99.90;;;;;;5092084;28;20048;-60
2021/12/19 08:19:53;;;;;;;40.78;24.85;;;0.80;99.90;;;;;;5092245;28;20050;-60
2021/12/19 08:22:20;;;;;;;39.70;24.40;;;0.90;99.90;;;;;;5092392;28;20024;-60
2021/12/19 08:24:47;;;;;;;44.22;24.90;;;0.90;99.90;;;;;;5091710;28;20020;-60
2021/12/19 08:27:13;;;;;;;38.40;23.15;;;0.90;99.90;;;;;;5091188;28;20031;-60
2021/12/19 08:29:39;;;;;;;39.97;23.80;;;0.90;99.90;;;;;;5090255;28;20031;-60
2021/12/19 08:32:05;;;;;;;41.67;23.05;;;1.00;99.90;;;;;;5090901;28;20020;-60
2021/12/19 08:34:31;;;;;;;44.10;24.20;;;1.10;99.90;;;;;;5090134;28;20024;-60
2021/12/19 08:36:57;;;;;;;37.60;23.02;;;1.10;99.90;;;;;;5090959;28;20492;-60
2021/12/19 08:39:22;;;;;;;41.47;23.38;;;1.20;99.90;;;;;;5090958;28;20499;-60
2021/12/19 08:41:49;;;;;;;38.65;22.45;;;1.20;99.90;;;;;;5072381;28;20024;-60
2021/12/19 08:44:14;;;;;;;37.38;22.77;;;1.30;99.90;;;;;;5090834;28;20043;-60
2021/12/19 08:46:41;;;;;;;37.55;23.45;;;1.30;99.90;;;;;;5090756;28;20533;-60
2021/12/19 08:49:08;;;;;;;36.88;24.08;;;1.20;99.90;;;;;;5091069;28;20016;-60
2021/12/19 08:51:35;;;;;;;45.60;26.25;;;1.20;99.90;;;;;;5090860;28;20032;-60
2021/12/19 08:54:01;;;;;;;38.78;23.25;;;1.00;99.90;;;;;;5074014;28;20035;-60
2021/12/19 08:56:27;;;;;;;33.97;20.30;;;1.10;99.90;;;;;;5070574;28;20020;-60
2021/12/19 08:58:53;;;;;;;37.08;22.63;;;1.10;99.90;;;;;;5070651;28;20024;-60
2021/12/19 09:01:19;;;;;;;34.30;20.88;;;1.20;99.90;;;;;;5070422;28;20031;-60
2021/12/19 09:03:45;;;;;;;31.27;20.80;;;1.20;99.90;;;;;;5070721;28;20033;-61
2021/12/19 09:06:10;;;;;;;31.90;19.77;;;1.20;99.90;;;;;;5070437;28;20028;-60
2021/12/19 09:08:36;;;;;;;32.70;20.50;;;1.30;99.90;;;;;;5070613;28;20107;-60
2021/12/19 09:11:03;;;;;;;44.17;22.10;;;1.20;99.90;;;;;;5070344;28;20028;-60
2021/12/19 09:13:28;;;;;;;34.42;19.02;;;1.20;99.90;;;;;;5070557;28;20025;-60
2021/12/19 09:15:54;;;;;;;32.28;20.65;;;1.30;99.90;;;;;;5070369;28;20457;-60
2021/12/19 09:18:20;;;;;;;32.10;20.13;;;1.30;99.90;;;;;;5070023;28;20021;-60
2021/12/19 09:20:46;;;;;;;30.33;18.67;;;1.30;99.90;;;;;;5070275;28;20029;-60
2021/12/19 09:23:12;;;;;;;28.38;16.85;;;1.50;99.90;;;;;;5070416;28;20027;-60
2021/12/19 09:25:39;;;;;;;30.67;19.27;;;1.50;99.90;;;;;;5070468;28;20434;-60
2021/12/19 09:28:05;;;;;;;28.20;16.75;;;1.80;99.90;;;;;;5070270;28;20020;-60
2021/12/19 09:30:31;;;;;;;26.98;16.40;;;2.60;99.90;;;;;;5086690;28;20418;-60
2021/12/19 09:32:57;;;;;;;28.95;16.08;;;4.00;99.90;;;;;;5072242;28;20399;-60
2021/12/19 09:35:23;;;;;;;24.13;16.15;;;4.60;99.90;;;;;;5090281;28;20043;-60
2021/12/19 09:37:49;;;;;;;25.23;15.20;;;5.00;99.90;;;;;;5090581;28;20023;-60
2021/12/19 09:40:24;;;;;;;28.30;15.93;;;5.30;99.90;;;;;;5090300;28;20138;-60
2021/12/19 09:42:52;;;;;;;27.13;15.52;;;5.30;99.90;;;;;;5090265;28;20016;-60
2021/12/19 09:45:20;;;;;;;24.77;15.48;;;6.10;99.20;;;;;;5090994;28;20032;-60
2021/12/19 09:47:46;;;;;;;22.23;14.07;;;5.40;99.90;;;;;;5091542;28;20016;-59
2021/12/19 09:50:12;;;;;;;19.85;13.68;;;6.10;98.70;;;;;;5090824;28;20026;-60
2021/12/19 09:52:38;;;;;;;24.42;15.27;;;5.80;99.90;;;;;;5092147;28;20348;-60
2021/12/19 09:55:05;;;;;;;22.65;15.10;;;6.30;99.30;;;;;;5095115;28;20107;-60
2021/12/19 09:57:31;;;;;;;20.95;14.13;;;7.20;97.90;;;;;;5095246;28;20127;-60
2021/12/19 09:59:56;;;;;;;20.52;15.20;;;7.60;95.30;;;;;;5095011;28;20415;-60
2021/12/19 10:02:23;;;;;;;23.70;15.45;;;7.10;97.10;;;;;;5094753;28;20659;-60
2021/12/19 10:04:49;;;;;;;22.65;14.77;;;7.90;94.20;;;;;;5075140;28;20070;-60
2021/12/19 10:07:18;;;;;;;22.60;14.75;;;7.90;95.30;;;;;;5093635;28;20012;-60
2021/12/19 10:09:56;;;;;;;24.10;16.50;;;8.10;92.80;;;;;;5094077;28;20016;-60
2021/12/19 10:14:57;;;;;;;21.02;14.77;;;7.50;95.10;;;;;;5093269;28;20525;-60
2021/12/19 10:17:23;;;;;;;17.98;13.10;;;6.40;95.40;;;;;;5093535;28;20048;-60
2021/12/19 10:19:54;;;;;;;24.85;13.30;;;8.30;93.70;;;;;;5093458;28;20013;-60
2021/12/19 10:22:40;;;;;;;22.98;14.43;;;8.50;92.10;;;;;;5093410;28;20085;-60
2021/12/19 10:25:22;;;;;;;18.67;13.48;;;7.60;93.80;;;;;;5093332;28;20074;-60
2021/12/19 10:28:03;;;;;;;25.85;15.15;;;7.50;94.00;;;;;;5072522;28;20112;-60
2021/12/19 10:30:49;;;;;;;20.17;14.57;;;7.90;92.90;;;;;;5073206;28;20021;-60
2021/12/19 10:33:18;;;;;;;18.90;14.10;;;6.40;94.80;;;;;;5054888;28;20529;-60
2021/12/19 10:35:47;;;;;;;18.08;13.27;;;6.70;94.50;;;;;;5073218;28;20021;-60
2021/12/19 10:38:16;;;;;;;18.88;13.05;;;6.40;95.20;;;;;;5072871;28;20028;-60
2021/12/19 10:41:13;;;;;;;20.50;13.93;;;7.10;93.50;;;;;;5062697;28;20024;-59
2021/12/19 10:46:44;;;;;;;28.30;12.80;;;8.00;93.00;;;;;;5056460;28;20037;-60
2021/12/19 10:49:32;;;;;;;17.52;12.82;;;8.90;91.20;;;;;;5072575;28;20032;-60
2021/12/19 10:52:01;;;;;;;19.25;13.10;;;9.00;89.60;;;;;;5072885;28;20028;-60
2021/12/19 10:54:28;;;;;;;16.63;12.30;;;9.10;89.70;;;;;;5072554;28;20158;-60
2021/12/19 10:57:06;;;;;;;18.65;12.73;;;10.10;87.00;;;;;;5072703;28;20483;-60
2021/12/19 10:59:34;;;;;;;15.65;11.50;;;10.90;82.70;;;;;;5077723;28;20050;-60
2021/12/19 11:01:59;;;;;;;19.67;12.90;;;10.70;83.10;;;;;;5092974;28;20605;-60
2021/12/19 11:04:25;;;;;;;15.88;12.20;;;10.80;78.80;;;;;;5092543;28;20111;-60
2021/12/19 11:06:54;;;;;;;17.77;12.55;;;9.50;81.40;;;;;;5092446;28;20077;-60
2021/12/19 11:09:24;;;;;;;17.63;11.77;;;8.50;86.50;;;;;;5074528;28;20094;-60
2021/12/19 11:11:54;;;;;;;16.92;12.20;;;8.70;86.80;;;;;;5092719;28;20028;-60
2021/12/19 11:14:32;;;;;;;15.35;12.13;;;9.10;85.00;;;;;;5092126;28;20024;-58
2021/12/19 11:17:04;;;;;;;19.02;11.52;;;9.60;83.50;;;;;;5091789;28;20567;-60
2021/12/19 11:19:30;;;;;;;17.70;11.52;;;10.50;79.80;;;;;;5092631;28;20056;-60
2021/12/19 11:21:56;;;;;;;17.08;11.32;;;9.00;82.40;;;;;;5092335;28;20040;-60
2021/12/19 11:24:23;;;;;;;13.60;10.38;;;11.20;78.30;;;;;;5073873;28;20062;-60
2021/12/19 11:26:52;;;;;;;12.45;10.18;;;11.20;75.50;;;;;;5091234;28;20028;-60
2021/12/19 11:29:18;;;;;;;15.20;10.70;;;10.30;75.70;;;;;;5092209;28;20016;-58
2021/12/19 11:31:47;;;;;;;14.18;11.10;;;9.00;79.80;;;;;;5092092;28;20062;-59
2021/12/19 11:34:24;;;;;;;17.15;11.48;;;10.50;79.20;;;;;;5091849;28;20042;-60
2021/12/19 11:36:59;;;;;;;16.17;10.52;;;12.50;72.40;;;;;;5092150;28;20020;-59
2021/12/19 11:39:31;;;;;;;17.17;11.93;;;12.50;68.30;;;;;;5091916;28;20097;-59
2021/12/19 11:42:21;;;;;;;18.10;11.30;;;12.60;68.70;;;;;;5091820;28;20111;-59
2021/12/19 11:47:39;;;;;;;14.18;10.23;;;13.50;65.70;;;;;;5091769;28;20162;-59
2021/12/19 11:50:22;;;;;;;16.45;11.05;;;13.60;63.90;;;;;;5091426;28;20020;-59
2021/12/19 11:52:53;;;;;;;13.90;10.27;;;13.40;63.50;;;;;;5091971;28;20051;-59
2021/12/19 11:55:28;;;;;;;14.75;10.20;;;13.20;63.60;;;;;;5091689;28;20378;-59
2021/12/19 11:58:09;;;;;;;10.70;9.05;;;13.30;62.10;;;;;;5091781;28;20031;-60
2021/12/19 12:00:40;;;;;;;13.40;9.38;;;13.50;62.60;;;;;;5091725;28;20024;-61
2021/12/19 12:03:12;;;;;;;12.88;9.65;;;13.80;62.30;;;;;;5091348;28;20031;-60
2021/12/19 12:06:23;;;;;;;14.88;10.60;;;11.20;65.30;;;;;;5091574;28;20387;-60
2021/12/19 12:09:06;;;;;;;32.22;19.15;;;11.10;67.10;;;;;;5091430;28;20119;-61
2021/12/19 12:11:33;;;;;;;170.10;64.32;;;8.90;73.10;;;;;;5091492;28;20028;-60
2021/12/19 12:14:22;;;;;;;34.40;19.38;;;7.60;80.60;;;;;;5090668;28;20028;-60
2021/12/19 12:17:01;;;;;;;41.85;20.40;;;7.50;81.70;;;;;;5090686;28;20131;-60
2021/12/19 12:20:08;;;;;;;28.42;13.93;;;7.90;84.30;;;;;;5091257;28;20024;-60
2021/12/19 12:22:36;;;;;;;65.30;33.20;;;7.70;83.70;;;;;;5042303;28;20372;-60
2021/12/19 12:25:02;;;;;;;21.90;15.82;;;7.90;85.10;;;;;;5091227;28;20054;-61
2021/12/19 12:27:37;;;;;;;21.33;14.57;;;8.90;82.20;;;;;;5091293;28;20016;-63
2021/12/19 12:30:05;;;;;;;12.93;9.05;;;8.70;81.70;;;;;;5091135;28;20131;-60
2021/12/19 12:32:31;;;;;;;17.02;11.93;;;8.40;81.10;;;;;;5091397;28;20495;-59
2021/12/19 12:34:57;;;;;;;17.48;11.68;;;8.80;81.90;;;;;;5091083;28;20039;-59
2021/12/19 12:37:24;;;;;;;14.25;10.13;;;8.70;82.00;;;;;;5090568;28;20024;-59
2021/12/19 12:40:31;;;;;;;13.07;10.00;;;9.20;83.70;;;;;;5091042;28;20023;-59
2021/12/19 12:43:13;;;;;;;14.63;10.13;;;8.50;83.10;;;;;;5090741;28;20092;-59
2021/12/19 12:45:56;;;;;;;16.25;10.55;;;8.20;85.50;;;;;;5090768;28;20026;-59
2021/12/19 12:48:30;;;;;;;18.65;11.68;;;8.00;87.90;;;;;;5091645;28;20024;-59
2021/12/19 12:50:56;;;;;;;23.10;13.93;;;7.40;90.80;;;;;;5090814;28;20054;-59
2021/12/19 12:53:49;;;;;;;18.35;12.20;;;7.00;93.60;;;;;;5091375;28;20667;-59
2021/12/19 12:56:19;;;;;;;22.70;13.27;;;6.60;96.00;;;;;;5086934;28;20071;-59
2021/12/19 12:58:47;;;;;;;24.38;12.43;;;6.50;97.60;;;;;;5089815;28;20031;-59
2021/12/19 13:01:22;;;;;;;22.85;14.82;;;6.80;98.00;;;;;;5091294;28;20505;-60
2021/12/19 13:04:19;;;;;;;27.02;13.05;;;6.40;98.90;;;;;;5091366;28;20032;-59
2021/12/19 13:06:48;;;;;;;22.75;13.80;;;7.60;98.30;;;;;;5062753;28;20060;-59
2021/12/19 13:09:32;;;;;;;21.55;13.90;;;9.00;94.00;;;;;;5090722;28;20107;-59
2021/12/19 13:12:01;;;;;;;20.08;12.15;;;10.00;91.50;;;;;;5090808;28;20081;-59
2021/12/19 13:14:29;;;;;;;20.40;11.68;;;10.60;90.60;;;;;;5090721;28;20028;-59
2021/12/19 13:17:03;;;;;;;20.30;12.68;;;11.70;82.80;;;;;;5090891;28;20040;-59
2021/12/19 13:20:25;;;;;;;17.13;11.65;;;10.50;83.60;;;;;;5091198;28;20020;-59
2021/12/19 13:22:56;;;;;;;17.65;12.40;;;9.80;86.60;;;;;;5091133;28;20115;-59
2021/12/19 13:25:41;;;;;;;17.73;11.35;;;10.90;84.40;;;;;;5091141;28;20027;-59
2021/12/19 13:28:12;;;;;;;15.30;10.43;;;11.90;81.10;;;;;;5092928;28;20024;-59
2021/12/19 13:30:41;;;;;;;14.82;10.20;;;11.80;78.00;;;;;;5095527;28;20050;-59
2021/12/19 13:33:15;;;;;;;13.32;9.85;;;11.90;80.60;;;;;;5095381;28;20024;-59
2021/12/19 13:35:50;;;;;;;16.30;9.90;;;12.30;77.80;;;;;;5094970;28;20031;-59
2021/12/19 13:38:19;;;;;;;14.18;9.73;;;13.00;73.30;;;;;;5095233;28;20017;-60
2021/12/19 13:40:46;;;;;;;13.68;10.18;;;11.60;75.40;;;;;;5095156;28;20020;-59
2021/12/19 13:43:16;;;;;;;17.40;11.98;;;10.50;79.00;;;;;;5094994;28;20131;-59
2021/12/19 13:45:48;;;;;;;17.73;11.90;;;9.60;82.70;;;;;;5095079;28;20021;-60
2021/12/19 13:48:36;;;;;;;16.13;11.18;;;9.50;85.40;;;;;;5094966;28;20020;-59
2021/12/19 13:51:07;;;;;;;15.65;10.95;;;10.00;82.80;;;;;;5094498;28;20099;-59
2021/12/19 13:53:35;;;;;;;18.70;12.73;;;8.80;87.20;;;;;;5092876;28;20106;-60
2021/12/19 13:56:23;;;;;;;23.55;14.38;;;7.70;91.20;;;;;;5095108;28;20075;-59
2021/12/19 13:58:52;;;;;;;22.17;13.68;;;7.80;91.30;;;;;;5076620;28;20119;-59
2021/12/19 14:01:30;;;;;;;20.60;13.18;;;7.80;92.50;;;;;;5091542;28;20031;-59